sensor_id;sensor_type;location;lat;lon;timestamp;temperature;humidity
65707;SHT31;52423;43.512;5.220;2023-02-03T00:00:36;6.85;64.79
65707;SHT31;52423;43.512;5.220;2023-02-03T00:03:01;6.91;65.96
65707;SHT31;52423;43.512;5.220;2023-02-03T00:05:27;6.78;66.07
65707;SHT31;52423;43.512;5.220;2023-02-03T00:07:53;6.76;65.91
65707;SHT31;52423;43.512;5.220;2023-02-03T00:10:18;6.81;66.25
65707;SHT31;52423;43.512;5.220;2023-02-03T00:12:48;6.77;66.33
65707;SHT31;52423;43.512;5.220;2023-02-03T00:15:14;6.81;65.81
65707;SHT31;52423;43.512;5.220;2023-02-03T00:17:39;6.66;66.16
65707;SHT31;52423;43.512;5.220;2023-02-03T00:20:05;6.68;66.00
65707;SHT31;52423;43.512;5.220;2023-02-03T00:22:30;6.63;66.07
65707;SHT31;52423;43.512;5.220;2023-02-03T00:24:56;6.58;66.66
65707;SHT31;52423;43.512;5.220;2023-02-03T00:27:21;6.57;66.51
65707;SHT31;52423;43.512;5.220;2023-02-03T00:29:46;6.58;65.91
65707;SHT31;52423;43.512;5.220;2023-02-03T00:32:12;6.66;66.53
65707;SHT31;52423;43.512;5.220;2023-02-03T00:34:37;6.68;66.23
65707;SHT31;52423;43.512;5.220;2023-02-03T00:37:02;6.68;66.74
65707;SHT31;52423;43.512;5.220;2023-02-03T00:39:28;6.60;66.38
65707;SHT31;52423;43.512;5.220;2023-02-03T00:41:53;6.68;66.29
65707;SHT31;52423;43.512;5.220;2023-02-03T00:44:19;6.76;66.28
65707;SHT31;52423;43.512;5.220;2023-02-03T00:46:44;6.81;65.61
65707;SHT31;52423;43.512;5.220;2023-02-03T00:49:09;6.91;65.52
65707;SHT31;52423;43.512;5.220;2023-02-03T00:51:35;6.95;65.64
65707;SHT31;52423;43.512;5.220;2023-02-03T00:54:00;6.99;65.60
65707;SHT31;52423;43.512;5.220;2023-02-03T00:56:26;6.98;65.99
65707;SHT31;52423;43.512;5.220;2023-02-03T00:58:51;6.94;65.63
65707;SHT31;52423;43.512;5.220;2023-02-03T01:01:16;6.83;66.00
65707;SHT31;52423;43.512;5.220;2023-02-03T01:03:42;6.77;66.47
65707;SHT31;52423;43.512;5.220;2023-02-03T01:06:13;6.58;67.20
65707;SHT31;52423;43.512;5.220;2023-02-03T01:08:39;6.47;67.05
65707;SHT31;52423;43.512;5.220;2023-02-03T01:11:09;6.41;67.84
65707;SHT31;52423;43.512;5.220;2023-02-03T01:13:36;6.36;67.24
65707;SHT31;52423;43.512;5.220;2023-02-03T01:16:01;6.25;66.82
65707;SHT31;52423;43.512;5.220;2023-02-03T01:18:27;6.10;67.28
65707;SHT31;52423;43.512;5.220;2023-02-03T01:20:53;6.16;68.02
65707;SHT31;52423;43.512;5.220;2023-02-03T01:23:18;6.06;68.40
65707;SHT31;52423;43.512;5.220;2023-02-03T01:25:44;6.08;68.06
65707;SHT31;52423;43.512;5.220;2023-02-03T01:28:09;5.85;68.31
65707;SHT31;52423;43.512;5.220;2023-02-03T01:30:34;5.88;68.40
65707;SHT31;52423;43.512;5.220;2023-02-03T01:33:00;5.92;68.42
65707;SHT31;52423;43.512;5.220;2023-02-03T01:35:25;6.02;68.10
65707;SHT31;52423;43.512;5.220;2023-02-03T01:37:51;6.06;67.46
65707;SHT31;52423;43.512;5.220;2023-02-03T01:40:17;6.26;68.18
65707;SHT31;52423;43.512;5.220;2023-02-03T01:42:42;6.33;67.56
65707;SHT31;52423;43.512;5.220;2023-02-03T01:45:09;6.34;67.43
65707;SHT31;52423;43.512;5.220;2023-02-03T01:47:55;6.30;67.20
65707;SHT31;52423;43.512;5.220;2023-02-03T01:50:31;6.39;67.40
65707;SHT31;52423;43.512;5.220;2023-02-03T01:53:05;6.39;67.75
65707;SHT31;52423;43.512;5.220;2023-02-03T01:55:36;6.36;67.36
65707;SHT31;52423;43.512;5.220;2023-02-03T01:58:07;6.43;67.81
65707;SHT31;52423;43.512;5.220;2023-02-03T02:00:35;6.47;67.03
65707;SHT31;52423;43.512;5.220;2023-02-03T02:03:01;6.49;67.75
65707;SHT31;52423;43.512;5.220;2023-02-03T02:07:55;6.47;67.70
65707;SHT31;52423;43.512;5.220;2023-02-03T02:10:21;6.43;67.74
65707;SHT31;52423;43.512;5.220;2023-02-03T02:12:47;6.34;67.83
65707;SHT31;52423;43.512;5.220;2023-02-03T02:15:12;6.26;68.40
65707;SHT31;52423;43.512;5.220;2023-02-03T02:17:51;6.28;67.80
65707;SHT31;52423;43.512;5.220;2023-02-03T02:20:28;6.33;67.30
65707;SHT31;52423;43.512;5.220;2023-02-03T02:31:16;6.32;67.99
65707;SHT31;52423;43.512;5.220;2023-02-03T02:40:20;6.06;68.38
65707;SHT31;52423;43.512;5.220;2023-02-03T02:43:16;5.94;68.28
65707;SHT31;52423;43.512;5.220;2023-02-03T02:46:31;5.88;68.73
65707;SHT31;52423;43.512;5.220;2023-02-03T02:49:04;5.77;68.38
65707;SHT31;52423;43.512;5.220;2023-02-03T02:51:31;5.82;68.54
65707;SHT31;52423;43.512;5.220;2023-02-03T02:54:03;5.82;67.74
65707;SHT31;52423;43.512;5.220;2023-02-03T02:56:32;5.81;67.62
65707;SHT31;52423;43.512;5.220;2023-02-03T02:58:59;5.79;69.11
65707;SHT31;52423;43.512;5.220;2023-02-03T03:01:26;5.75;68.43
65707;SHT31;52423;43.512;5.220;2023-02-03T03:03:51;5.72;68.97
65707;SHT31;52423;43.512;5.220;2023-02-03T03:08:59;5.81;68.96
65707;SHT31;52423;43.512;5.220;2023-02-03T03:11:29;5.69;68.88
65707;SHT31;52423;43.512;5.220;2023-02-03T03:13:55;5.74;68.92
65707;SHT31;52423;43.512;5.220;2023-02-03T03:16:28;5.74;69.07
65707;SHT31;52423;43.512;5.220;2023-02-03T03:19:00;5.72;68.81
65707;SHT31;52423;43.512;5.220;2023-02-03T03:21:31;5.65;68.81
65707;SHT31;52423;43.512;5.220;2023-02-03T03:24:03;5.57;68.99
65707;SHT31;52423;43.512;5.220;2023-02-03T03:26:34;5.55;69.40
65707;SHT31;52423;43.512;5.220;2023-02-03T03:29:21;5.54;69.01
65707;SHT31;52423;43.512;5.220;2023-02-03T03:31:48;5.62;69.41
65707;SHT31;52423;43.512;5.220;2023-02-03T03:34:14;5.59;68.70
65707;SHT31;52423;43.512;5.220;2023-02-03T03:36:52;5.64;68.64
65707;SHT31;52423;43.512;5.220;2023-02-03T03:39:27;5.68;68.47
65707;SHT31;52423;43.512;5.220;2023-02-03T03:42:11;5.71;69.15
65707;SHT31;52423;43.512;5.220;2023-02-03T03:50:16;5.81;68.75
65707;SHT31;52423;43.512;5.220;2023-02-03T03:52:44;5.79;68.61
65707;SHT31;52423;43.512;5.220;2023-02-03T03:55:11;5.75;68.44
65707;SHT31;52423;43.512;5.220;2023-02-03T04:00:44;5.52;69.05
65707;SHT31;52423;43.512;5.220;2023-02-03T04:03:15;5.43;69.40
65707;SHT31;52423;43.512;5.220;2023-02-03T04:05:41;5.40;69.84
65707;SHT31;52423;43.512;5.220;2023-02-03T04:08:07;5.36;69.59
65707;SHT31;52423;43.512;5.220;2023-02-03T04:10:37;5.22;69.75
65707;SHT31;52423;43.512;5.220;2023-02-03T04:13:04;5.06;70.98
65707;SHT31;52423;43.512;5.220;2023-02-03T04:15:30;4.99;71.13
65707;SHT31;52423;43.512;5.220;2023-02-03T04:17:56;5.00;71.52
65707;SHT31;52423;43.512;5.220;2023-02-03T04:20:24;5.09;71.26
65707;SHT31;52423;43.512;5.220;2023-02-03T04:22:49;5.22;70.95
65707;SHT31;52423;43.512;5.220;2023-02-03T04:25:15;5.27;70.86
65707;SHT31;52423;43.512;5.220;2023-02-03T04:27:41;5.30;70.69
65707;SHT31;52423;43.512;5.220;2023-02-03T04:30:07;5.34;70.04
65707;SHT31;52423;43.512;5.220;2023-02-03T04:32:33;5.50;70.01
65707;SHT31;52423;43.512;5.220;2023-02-03T04:35:00;5.57;69.75
65707;SHT31;52423;43.512;5.220;2023-02-03T04:37:26;5.61;69.68
65707;SHT31;52423;43.512;5.220;2023-02-03T04:39:54;5.64;69.20
65707;SHT31;52423;43.512;5.220;2023-02-03T04:42:21;5.72;69.79
65707;SHT31;52423;43.512;5.220;2023-02-03T04:44:46;5.77;69.45
65707;SHT31;52423;43.512;5.220;2023-02-03T04:47:12;5.74;70.09
65707;SHT31;52423;43.512;5.220;2023-02-03T04:49:37;5.68;70.14
65707;SHT31;52423;43.512;5.220;2023-02-03T04:52:03;5.58;70.38
65707;SHT31;52423;43.512;5.220;2023-02-03T04:54:28;5.47;69.76
65707;SHT31;52423;43.512;5.220;2023-02-03T04:56:53;5.50;70.22
65707;SHT31;52423;43.512;5.220;2023-02-03T04:59:19;5.55;70.54
65707;SHT31;52423;43.512;5.220;2023-02-03T05:01:44;5.59;70.60
65707;SHT31;52423;43.512;5.220;2023-02-03T05:04:10;5.58;70.14
65707;SHT31;52423;43.512;5.220;2023-02-03T05:06:35;5.43;69.99
65707;SHT31;52423;43.512;5.220;2023-02-03T05:09:01;5.34;70.07
65707;SHT31;52423;43.512;5.220;2023-02-03T05:11:26;5.22;70.53
65707;SHT31;52423;43.512;5.220;2023-02-03T05:13:52;5.27;70.03
65707;SHT31;52423;43.512;5.220;2023-02-03T05:16:18;5.17;69.93
65707;SHT31;52423;43.512;5.220;2023-02-03T05:18:43;5.20;70.01
65707;SHT31;52423;43.512;5.220;2023-02-03T05:21:09;5.06;70.00
65707;SHT31;52423;43.512;5.220;2023-02-03T05:23:34;5.10;70.43
65707;SHT31;52423;43.512;5.220;2023-02-03T05:26:00;4.99;71.19
65707;SHT31;52423;43.512;5.220;2023-02-03T05:28:25;4.86;71.12
65707;SHT31;52423;43.512;5.220;2023-02-03T05:30:51;4.93;71.09
65707;SHT31;52423;43.512;5.220;2023-02-03T05:33:16;5.07;71.05
65707;SHT31;52423;43.512;5.220;2023-02-03T05:35:42;5.17;70.38
65707;SHT31;52423;43.512;5.220;2023-02-03T05:38:07;5.23;70.00
65707;SHT31;52423;43.512;5.220;2023-02-03T05:40:32;5.24;69.55
65707;SHT31;52423;43.512;5.220;2023-02-03T05:43:17;5.28;69.70
65707;SHT31;52423;43.512;5.220;2023-02-03T05:45:43;5.26;69.40
65707;SHT31;52423;43.512;5.220;2023-02-03T05:48:09;5.19;69.77
65707;SHT31;52423;43.512;5.220;2023-02-03T05:50:35;5.15;70.10
65707;SHT31;52423;43.512;5.220;2023-02-03T05:53:02;5.17;69.50
65707;SHT31;52423;43.512;5.220;2023-02-03T05:55:29;5.30;68.99
65707;SHT31;52423;43.512;5.220;2023-02-03T05:57:55;5.43;68.64
65707;SHT31;52423;43.512;5.220;2023-02-03T06:00:21;5.79;67.13
65707;SHT31;52423;43.512;5.220;2023-02-03T06:02:58;5.69;67.61
65707;SHT31;52423;43.512;5.220;2023-02-03T06:05:24;5.88;66.90
65707;SHT31;52423;43.512;5.220;2023-02-03T06:07:50;5.82;67.80
65707;SHT31;52423;43.512;5.220;2023-02-03T06:10:16;5.75;67.25
65707;SHT31;52423;43.512;5.220;2023-02-03T06:12:42;5.71;67.46
65707;SHT31;52423;43.512;5.220;2023-02-03T06:15:08;5.59;68.16
65707;SHT31;52423;43.512;5.220;2023-02-03T06:17:33;5.47;68.78
65707;SHT31;52423;43.512;5.220;2023-02-03T06:20:02;5.41;69.29
65707;SHT31;52423;43.512;5.220;2023-02-03T06:22:28;5.44;69.17
65707;SHT31;52423;43.512;5.220;2023-02-03T06:24:53;5.36;69.62
65707;SHT31;52423;43.512;5.220;2023-02-03T06:27:19;5.26;69.70
65707;SHT31;52423;43.512;5.220;2023-02-03T06:29:44;5.09;70.45
65707;SHT31;52423;43.512;5.220;2023-02-03T06:32:10;5.06;70.74
65707;SHT31;52423;43.512;5.220;2023-02-03T06:34:35;5.01;71.11
65707;SHT31;52423;43.512;5.220;2023-02-03T06:37:01;4.92;70.81
65707;SHT31;52423;43.512;5.220;2023-02-03T06:39:26;4.83;71.29
65707;SHT31;52423;43.512;5.220;2023-02-03T06:41:51;4.83;71.07
65707;SHT31;52423;43.512;5.220;2023-02-03T06:44:17;4.62;70.54
65707;SHT31;52423;43.512;5.220;2023-02-03T06:46:43;4.48;70.81
65707;SHT31;52423;43.512;5.220;2023-02-03T06:49:09;4.33;71.62
65707;SHT31;52423;43.512;5.220;2023-02-03T06:51:34;4.21;71.54
65707;SHT31;52423;43.512;5.220;2023-02-03T06:54:00;4.07;70.98
65707;SHT31;52423;43.512;5.220;2023-02-03T06:56:27;4.06;71.45
65707;SHT31;52423;43.512;5.220;2023-02-03T06:58:53;4.03;71.66
65707;SHT31;52423;43.512;5.220;2023-02-03T07:01:18;3.90;71.81
65707;SHT31;52423;43.512;5.220;2023-02-03T07:03:43;3.63;72.06
65707;SHT31;52423;43.512;5.220;2023-02-03T07:06:09;3.49;71.91
65707;SHT31;52423;43.512;5.220;2023-02-03T07:08:34;3.45;72.22
65707;SHT31;52423;43.512;5.220;2023-02-03T07:10:59;3.45;71.95
65707;SHT31;52423;43.512;5.220;2023-02-03T07:13:25;3.43;72.32
65707;SHT31;52423;43.512;5.220;2023-02-03T07:15:50;3.58;72.00
65707;SHT31;52423;43.512;5.220;2023-02-03T07:18:15;3.75;71.38
65707;SHT31;52423;43.512;5.220;2023-02-03T07:20:43;3.77;71.22
65707;SHT31;52423;43.512;5.220;2023-02-03T07:23:08;3.90;71.38
65707;SHT31;52423;43.512;5.220;2023-02-03T07:25:34;4.07;70.52
65707;SHT31;52423;43.512;5.220;2023-02-03T07:27:59;4.24;70.84
65707;SHT31;52423;43.512;5.220;2023-02-03T07:30:25;4.35;70.96
65707;SHT31;52423;43.512;5.220;2023-02-03T07:32:51;4.48;70.48
65707;SHT31;52423;43.512;5.220;2023-02-03T07:35:17;4.37;69.52
65707;SHT31;52423;43.512;5.220;2023-02-03T07:37:42;4.45;69.54
65707;SHT31;52423;43.512;5.220;2023-02-03T07:40:09;4.58;70.57
65707;SHT31;52423;43.512;5.220;2023-02-03T07:42:39;4.73;70.06
65707;SHT31;52423;43.512;5.220;2023-02-03T07:45:05;4.89;69.32
65707;SHT31;52423;43.512;5.220;2023-02-03T07:47:31;5.09;69.69
65707;SHT31;52423;43.512;5.220;2023-02-03T07:49:57;5.40;68.60
65707;SHT31;52423;43.512;5.220;2023-02-03T07:52:22;5.65;68.35
65707;SHT31;52423;43.512;5.220;2023-02-03T07:54:47;6.09;68.71
65707;SHT31;52423;43.512;5.220;2023-02-03T07:57:13;6.49;66.46
65707;SHT31;52423;43.512;5.220;2023-02-03T07:59:38;6.68;66.93
65707;SHT31;52423;43.512;5.220;2023-02-03T08:02:04;7.02;65.05
65707;SHT31;52423;43.512;5.220;2023-02-03T08:04:30;7.22;64.30
65707;SHT31;52423;43.512;5.220;2023-02-03T08:06:55;7.14;65.08
65707;SHT31;52423;43.512;5.220;2023-02-03T08:09:20;7.25;63.92
65707;SHT31;52423;43.512;5.220;2023-02-03T08:11:46;7.56;63.16
65707;SHT31;52423;43.512;5.220;2023-02-03T08:14:12;7.67;62.99
65707;SHT31;52423;43.512;5.220;2023-02-03T08:16:38;7.79;62.99
65707;SHT31;52423;43.512;5.220;2023-02-03T08:19:04;8.08;62.65
65707;SHT31;52423;43.512;5.220;2023-02-03T08:21:29;8.39;61.97
65707;SHT31;52423;43.512;5.220;2023-02-03T08:23:55;8.56;61.54
65707;SHT31;52423;43.512;5.220;2023-02-03T08:26:21;8.70;61.05
65707;SHT31;52423;43.512;5.220;2023-02-03T08:28:49;8.90;61.37
65707;SHT31;52423;43.512;5.220;2023-02-03T08:31:15;9.19;60.45
65707;SHT31;52423;43.512;5.220;2023-02-03T08:33:40;9.23;59.26
65707;SHT31;52423;43.512;5.220;2023-02-03T08:36:06;8.97;59.29
65707;SHT31;52423;43.512;5.220;2023-02-03T08:38:31;9.27;59.32
65707;SHT31;52423;43.512;5.220;2023-02-03T08:40:57;9.51;58.55
65707;SHT31;52423;43.512;5.220;2023-02-03T08:43:22;9.74;56.82
65707;SHT31;52423;43.512;5.220;2023-02-03T08:45:48;9.65;57.52
65707;SHT31;52423;43.512;5.220;2023-02-03T08:48:13;9.65;58.33
65707;SHT31;52423;43.512;5.220;2023-02-03T08:50:42;9.72;56.75
65707;SHT31;52423;43.512;5.220;2023-02-03T08:53:09;9.77;56.84
65707;SHT31;52423;43.512;5.220;2023-02-03T08:55:38;9.75;57.15
65707;SHT31;52423;43.512;5.220;2023-02-03T08:58:04;9.82;56.65
65707;SHT31;52423;43.512;5.220;2023-02-03T09:00:29;9.92;55.44
65707;SHT31;52423;43.512;5.220;2023-02-03T09:02:55;10.01;55.19
65707;SHT31;52423;43.512;5.220;2023-02-03T09:05:20;10.23;55.92
65707;SHT31;52423;43.512;5.220;2023-02-03T09:07:46;10.33;56.66
65707;SHT31;52423;43.512;5.220;2023-02-03T09:10:11;10.16;54.00
65707;SHT31;52423;43.512;5.220;2023-02-03T09:12:37;10.32;55.76
65707;SHT31;52423;43.512;5.220;2023-02-03T09:15:03;10.30;54.22
65707;SHT31;52423;43.512;5.220;2023-02-03T09:17:30;10.50;54.94
65707;SHT31;52423;43.512;5.220;2023-02-03T09:19:55;10.73;54.59
65707;SHT31;52423;43.512;5.220;2023-02-03T09:22:20;10.60;54.59
65707;SHT31;52423;43.512;5.220;2023-02-03T09:24:46;10.70;54.65
65707;SHT31;52423;43.512;5.220;2023-02-03T09:27:14;10.60;53.56
65707;SHT31;52423;43.512;5.220;2023-02-03T09:29:39;10.65;53.19
65707;SHT31;52423;43.512;5.220;2023-02-03T09:32:05;10.82;54.34
65707;SHT31;52423;43.512;5.220;2023-02-03T09:34:32;10.92;54.33
65707;SHT31;52423;43.512;5.220;2023-02-03T09:36:58;10.87;52.37
65707;SHT31;52423;43.512;5.220;2023-02-03T09:39:23;11.00;53.59
65707;SHT31;52423;43.512;5.220;2023-02-03T09:42:04;11.16;52.53
65707;SHT31;52423;43.512;5.220;2023-02-03T09:45:16;11.08;51.35
65707;SHT31;52423;43.512;5.220;2023-02-03T09:47:44;11.22;53.23
65707;SHT31;52423;43.512;5.220;2023-02-03T09:50:13;11.22;51.71
65707;SHT31;52423;43.512;5.220;2023-02-03T09:52:40;11.47;51.87
65707;SHT31;52423;43.512;5.220;2023-02-03T09:55:41;11.59;51.63
65707;SHT31;52423;43.512;5.220;2023-02-03T09:58:18;11.86;51.47
65707;SHT31;52423;43.512;5.220;2023-02-03T10:03:34;11.98;50.51
65707;SHT31;52423;43.512;5.220;2023-02-03T10:06:24;12.00;49.55
65707;SHT31;52423;43.512;5.220;2023-02-03T10:09:33;12.25;49.85
65707;SHT31;52423;43.512;5.220;2023-02-03T10:17:40;12.14;50.27
65707;SHT31;52423;43.512;5.220;2023-02-03T10:22:40;12.37;48.34
65707;SHT31;52423;43.512;5.220;2023-02-03T10:25:13;12.45;49.02
65707;SHT31;52423;43.512;5.220;2023-02-03T10:27:41;12.46;49.03
65707;SHT31;52423;43.512;5.220;2023-02-03T10:30:28;12.35;48.97
65707;SHT31;52423;43.512;5.220;2023-02-03T10:33:13;12.16;48.26
65707;SHT31;52423;43.512;5.220;2023-02-03T10:41:24;12.49;47.08
65707;SHT31;52423;43.512;5.220;2023-02-03T10:43:51;12.59;47.66
65707;SHT31;52423;43.512;5.220;2023-02-03T10:46:20;12.59;46.89
65707;SHT31;52423;43.512;5.220;2023-02-03T10:48:46;12.45;47.38
65707;SHT31;52423;43.512;5.220;2023-02-03T10:51:25;12.55;47.54
65707;SHT31;52423;43.512;5.220;2023-02-03T10:53:52;12.42;48.65
65707;SHT31;52423;43.512;5.220;2023-02-03T10:56:24;12.48;47.40
65707;SHT31;52423;43.512;5.220;2023-02-03T10:58:53;12.35;47.39
65707;SHT31;52423;43.512;5.220;2023-02-03T11:01:22;12.41;44.56
65707;SHT31;52423;43.512;5.220;2023-02-03T11:03:57;12.41;47.08
65707;SHT31;52423;43.512;5.220;2023-02-03T11:06:24;12.51;47.70
65707;SHT31;52423;43.512;5.220;2023-02-03T11:08:50;12.69;46.55
65707;SHT31;52423;43.512;5.220;2023-02-03T11:11:30;12.62;47.14
65707;SHT31;52423;43.512;5.220;2023-02-03T11:16:33;12.69;46.26
65707;SHT31;52423;43.512;5.220;2023-02-03T11:19:02;12.86;43.60
65707;SHT31;52423;43.512;5.220;2023-02-03T11:26:39;12.78;45.26
65707;SHT31;52423;43.512;5.220;2023-02-03T11:29:15;13.00;43.22
65707;SHT31;52423;43.512;5.220;2023-02-03T11:31:46;13.10;44.24
65707;SHT31;52423;43.512;5.220;2023-02-03T11:34:20;13.09;44.70
65707;SHT31;52423;43.512;5.220;2023-02-03T11:36:48;13.23;44.73
65707;SHT31;52423;43.512;5.220;2023-02-03T11:39:47;13.39;43.25
65707;SHT31;52423;43.512;5.220;2023-02-03T11:42:21;13.50;41.30
65707;SHT31;52423;43.512;5.220;2023-02-03T11:44:46;13.44;41.43
65707;SHT31;52423;43.512;5.220;2023-02-03T11:47:13;13.46;43.28
65707;SHT31;52423;43.512;5.220;2023-02-03T11:50:04;13.36;44.84
65707;SHT31;52423;43.512;5.220;2023-02-03T11:53:13;13.40;42.83
65707;SHT31;52423;43.512;5.220;2023-02-03T11:56:06;13.68;42.60
65707;SHT31;52423;43.512;5.220;2023-02-03T12:04:58;13.94;41.75
65707;SHT31;52423;43.512;5.220;2023-02-03T12:15:43;14.11;41.10
65707;SHT31;52423;43.512;5.220;2023-02-03T12:18:29;14.21;40.60
65707;SHT31;52423;43.512;5.220;2023-02-03T12:26:22;14.23;40.77
65707;SHT31;52423;43.512;5.220;2023-02-03T12:29:13;14.21;40.29
65707;SHT31;52423;43.512;5.220;2023-02-03T12:31:45;14.33;39.92
65707;SHT31;52423;43.512;5.220;2023-02-03T12:34:20;14.22;41.50
65707;SHT31;52423;43.512;5.220;2023-02-03T12:37:15;14.43;40.36
65707;SHT31;52423;43.512;5.220;2023-02-03T12:39:52;14.34;41.86
65707;SHT31;52423;43.512;5.220;2023-02-03T12:45:08;14.59;40.50
65707;SHT31;52423;43.512;5.220;2023-02-03T12:47:41;14.53;40.60
65707;SHT31;52423;43.512;5.220;2023-02-03T12:50:34;14.50;39.11
65707;SHT31;52423;43.512;5.220;2023-02-03T12:53:19;14.47;41.06
65707;SHT31;52423;43.512;5.220;2023-02-03T12:55:49;14.49;40.50
65707;SHT31;52423;43.512;5.220;2023-02-03T12:58:24;14.57;40.31
65707;SHT31;52423;43.512;5.220;2023-02-03T13:03:51;14.62;39.25
65707;SHT31;52423;43.512;5.220;2023-02-03T13:06:51;14.53;39.53
65707;SHT31;52423;43.512;5.220;2023-02-03T13:12:40;14.85;38.85
65707;SHT31;52423;43.512;5.220;2023-02-03T13:20:51;14.76;40.72
65707;SHT31;52423;43.512;5.220;2023-02-03T13:23:18;14.74;41.40
65707;SHT31;52423;43.512;5.220;2023-02-03T13:44:37;14.95;40.55
65707;SHT31;52423;43.512;5.220;2023-02-03T13:47:04;14.93;41.09
65707;SHT31;52423;43.512;5.220;2023-02-03T13:49:33;14.95;41.38
65707;SHT31;52423;43.512;5.220;2023-02-03T13:51:59;15.07;40.11
65707;SHT31;52423;43.512;5.220;2023-02-03T13:57:01;15.07;40.12
65707;SHT31;52423;43.512;5.220;2023-02-03T13:59:37;15.05;41.28
65707;SHT31;52423;43.512;5.220;2023-02-03T14:07:31;14.81;41.47
65707;SHT31;52423;43.512;5.220;2023-02-03T14:23:05;14.90;41.81
65707;SHT31;52423;43.512;5.220;2023-02-03T14:28:11;14.83;41.02
65707;SHT31;52423;43.512;5.220;2023-02-03T14:31:00;14.80;41.11
65707;SHT31;52423;43.512;5.220;2023-02-03T14:41:52;14.69;42.09
65707;SHT31;52423;43.512;5.220;2023-02-03T14:55:36;14.64;41.31
65707;SHT31;52423;43.512;5.220;2023-02-03T14:58:12;14.56;41.97
65707;SHT31;52423;43.512;5.220;2023-02-03T15:00:38;14.59;42.24
65707;SHT31;52423;43.512;5.220;2023-02-03T15:05:43;14.42;43.66
65707;SHT31;52423;43.512;5.220;2023-02-03T15:10:56;14.47;41.30
65707;SHT31;52423;43.512;5.220;2023-02-03T15:13:31;14.39;42.82
65707;SHT31;52423;43.512;5.220;2023-02-03T15:15:59;14.43;41.54
65707;SHT31;52423;43.512;5.220;2023-02-03T15:18:34;14.34;42.33
65707;SHT31;52423;43.512;5.220;2023-02-03T15:21:01;14.32;43.44
65707;SHT31;52423;43.512;5.220;2023-02-03T15:23:37;14.32;42.03
65707;SHT31;52423;43.512;5.220;2023-02-03T15:26:12;14.37;41.79
65707;SHT31;52423;43.512;5.220;2023-02-03T15:28:37;14.16;43.35
65707;SHT31;52423;43.512;5.220;2023-02-03T15:31:08;14.18;42.49
65707;SHT31;52423;43.512;5.220;2023-02-03T15:33:40;14.15;43.39
65707;SHT31;52423;43.512;5.220;2023-02-03T15:36:18;14.09;42.35
65707;SHT31;52423;43.512;5.220;2023-02-03T15:38:49;14.01;43.64
65707;SHT31;52423;43.512;5.220;2023-02-03T15:41:22;13.92;42.99
65707;SHT31;52423;43.512;5.220;2023-02-03T15:43:50;13.85;44.26
65707;SHT31;52423;43.512;5.220;2023-02-03T15:46:46;13.75;44.67
65707;SHT31;52423;43.512;5.220;2023-02-03T15:49:20;13.64;45.42
65707;SHT31;52423;43.512;5.220;2023-02-03T15:51:54;13.46;45.90
65707;SHT31;52423;43.512;5.220;2023-02-03T15:54:30;13.44;46.17
65707;SHT31;52423;43.512;5.220;2023-02-03T15:57:00;13.43;45.66
65707;SHT31;52423;43.512;5.220;2023-02-03T15:59:33;13.33;46.93
65707;SHT31;52423;43.512;5.220;2023-02-03T16:02:14;13.28;46.94
65707;SHT31;52423;43.512;5.220;2023-02-03T16:04:42;13.28;46.48
65707;SHT31;52423;43.512;5.220;2023-02-03T16:07:15;13.14;47.59
65707;SHT31;52423;43.512;5.220;2023-02-03T16:09:42;13.07;46.11
65707;SHT31;52423;43.512;5.220;2023-02-03T16:12:16;12.91;47.47
65707;SHT31;52423;43.512;5.220;2023-02-03T16:14:43;12.75;48.53
65707;SHT31;52423;43.512;5.220;2023-02-03T16:19:46;12.66;46.99
65707;SHT31;52423;43.512;5.220;2023-02-03T16:22:39;12.49;48.70
65707;SHT31;52423;43.512;5.220;2023-02-03T16:25:25;12.52;47.76
65707;SHT31;52423;43.512;5.220;2023-02-03T16:28:15;12.44;47.64
65707;SHT31;52423;43.512;5.220;2023-02-03T16:33:49;12.37;47.52
65707;SHT31;52423;43.512;5.220;2023-02-03T16:36:33;12.18;48.67
65707;SHT31;52423;43.512;5.220;2023-02-03T16:39:21;12.07;48.85
65707;SHT31;52423;43.512;5.220;2023-02-03T16:42:20;11.89;50.33
65707;SHT31;52423;43.512;5.220;2023-02-03T16:45:16;11.84;49.96
65707;SHT31;52423;43.512;5.220;2023-02-03T16:48:02;11.73;50.69
65707;SHT31;52423;43.512;5.220;2023-02-03T16:50:46;11.67;50.86
65707;SHT31;52423;43.512;5.220;2023-02-03T16:53:26;11.70;49.52
65707;SHT31;52423;43.512;5.220;2023-02-03T16:55:54;11.62;49.93
65707;SHT31;52423;43.512;5.220;2023-02-03T16:58:20;11.73;49.60
65707;SHT31;52423;43.512;5.220;2023-02-03T17:00:47;11.56;50.35
65707;SHT31;52423;43.512;5.220;2023-02-03T17:03:15;11.56;49.83
65707;SHT31;52423;43.512;5.220;2023-02-03T17:05:43;11.55;50.48
65707;SHT31;52423;43.512;5.220;2023-02-03T17:08:09;11.43;50.76
65707;SHT31;52423;43.512;5.220;2023-02-03T17:10:39;11.44;50.57
65707;SHT31;52423;43.512;5.220;2023-02-03T17:13:05;11.40;50.73
65707;SHT31;52423;43.512;5.220;2023-02-03T17:15:32;11.36;50.83
65707;SHT31;52423;43.512;5.220;2023-02-03T17:17:58;11.19;51.66
65707;SHT31;52423;43.512;5.220;2023-02-03T17:20:23;11.18;51.44
65707;SHT31;52423;43.512;5.220;2023-02-03T17:22:48;11.16;51.67
65707;SHT31;52423;43.512;5.220;2023-02-03T17:25:17;11.10;51.71
65707;SHT31;52423;43.512;5.220;2023-02-03T17:27:43;11.04;52.01
65707;SHT31;52423;43.512;5.220;2023-02-03T17:30:08;11.02;51.97
65707;SHT31;52423;43.512;5.220;2023-02-03T17:32:34;10.98;52.92
65707;SHT31;52423;43.512;5.220;2023-02-03T17:34:59;11.10;52.09
65707;SHT31;52423;43.512;5.220;2023-02-03T17:37:25;11.05;52.35
65707;SHT31;52423;43.512;5.220;2023-02-03T17:39:50;11.07;52.60
65707;SHT31;52423;43.512;5.220;2023-02-03T17:42:16;11.04;52.62
65707;SHT31;52423;43.512;5.220;2023-02-03T17:44:41;11.00;52.98
65707;SHT31;52423;43.512;5.220;2023-02-03T17:47:07;10.95;53.19
65707;SHT31;52423;43.512;5.220;2023-02-03T17:49:33;10.95;52.48
65707;SHT31;52423;43.512;5.220;2023-02-03T17:51:58;11.00;52.34
65707;SHT31;52423;43.512;5.220;2023-02-03T17:54:23;10.85;53.20
65707;SHT31;52423;43.512;5.220;2023-02-03T17:56:49;10.82;53.53
65707;SHT31;52423;43.512;5.220;2023-02-03T17:59:14;10.78;53.77
65707;SHT31;52423;43.512;5.220;2023-02-03T18:01:40;10.75;53.66
65707;SHT31;52423;43.512;5.220;2023-02-03T18:04:07;10.68;54.45
65707;SHT31;52423;43.512;5.220;2023-02-03T18:06:35;10.64;54.06
65707;SHT31;52423;43.512;5.220;2023-02-03T18:09:03;10.59;54.12
65707;SHT31;52423;43.512;5.220;2023-02-03T18:11:31;10.59;54.19
65707;SHT31;52423;43.512;5.220;2023-02-03T18:13:57;10.60;54.13
65707;SHT31;52423;43.512;5.220;2023-02-03T18:16:25;10.59;54.29
65707;SHT31;52423;43.512;5.220;2023-02-03T18:18:52;10.49;54.73
65707;SHT31;52423;43.512;5.220;2023-02-03T18:21:19;10.42;54.85
65707;SHT31;52423;43.512;5.220;2023-02-03T18:23:45;10.39;54.92
65707;SHT31;52423;43.512;5.220;2023-02-03T18:26:12;10.36;54.87
65707;SHT31;52423;43.512;5.220;2023-02-03T18:28:38;10.37;55.14
65707;SHT31;52423;43.512;5.220;2023-02-03T18:33:30;10.22;55.88
65707;SHT31;52423;43.512;5.220;2023-02-03T18:35:56;10.20;55.73
65707;SHT31;52423;43.512;5.220;2023-02-03T18:38:23;10.14;55.99